Main page
METAR-TAF:

METAR-TAF

Airports :

Frankfurt–Hahn Airport

Hahn, Germany

latitude: 49-57N, longitude: 007-16E, elevation: 491 m

Current weather observation

The report was made 35 minutes ago, at 18:20 UTC
Wind 11 kt from the Southwest, varying between South/Southwest and West
Temperature 7°C
Humidity 93%
Pressure 1007 hPa
Visibility: 9000 m
Few clouds at a height of 200 ft
Scattered clouds at a height of 1300 ft
rain

METAR: EDFH 241820Z 23011KT 200V260 9000 RA FEW002 SCT013 07/06 Q1007

Time: 20:55 (18:55 UTC)

Forecast

The report was made 1 hour and 55 minutes ago, at 17:00 UTC
Forecast valid from 24 at 18 UTC to 25 at 18 UTC
Wind 12 kt from the South/Southeast
Visibility 10 km or more
no clouds below 1500 m and no cumulonimbus
Probability 40% :
Temporary
from 24 at 18 UTC to 24 at 20 UTC
Wind 15 kt from the South with gusts up to 25 kt
Broken clouds at a height of 2500 ft, Cumulonimbus.
rain showers

TAF: EDFH 241700Z 2418/2518 16012KT CAVOK PROB40 TEMPO 2418/2420 19015G25KT SHRA BKN025CB

Weather observations and forecasts of more than 4000 airports (METAR and TAF reports).

The available stations are represented by yellow and red dots on the map.

Hover mouse over dot to see the name of the station.

Then click to see weather observations and forecasts.

To change the map : click on the green buttons with a black cross to zoom in, on the green button with a dash to zoom out, or on the green arrows for adjacent maps.


METAR-TAF: